Holt, Michigan
Current Conditions -  °F | °C
As of 5:32 AM on Saturday 25 Oct 2014 (Local Time) from KTEW Reporting Station
Overcast Overcast  
Wind Chill: 50°   Ceiling: 3700
Heat Index: 50°   Visibility: 7mi
Dew Point: 47°   Wind: 0mph
Humidity: 90%   Direction: NA
Pressure: 29.85"   Gusts: NA
Location:  42.64°N, 84.51°W
Report Text: KTEW 250932Z AUTO 00000KT 7SM BKN037 OVC049 10/09 A2985 RMK AO2 T01010085
Loading
Personal Weather Stations






























Interactive Weather Map
Tropical Storm Tracking
New forecast layout! Learn more

10-Day Weather Forecast

Advertisements
Track Severe Weather on mobile